Hovedside
METAR-TAF:

METAR-TAF

Lufthavner :

Kristianstad, Sverige

breddegrad: 55-55N, lengdegrad: 014-05E, høyde over havet: 23 m

Gjeldene værobservasjon

Denne rapporten ble laget for 35 minutter siden, klokken 21:20 UTC
Vind 4 kt fra Øst-sørøst
Temperatur 18°C
Luftfuktighet 100%
Trykk 1007 hPa
Sikt: 2100 m
dis

METAR: ESMK 182120Z AUTO 12004KT 2100 BR BKN001/// 18/18 Q1007

Tid: 23:55 (21:55 UTC)

Varsel

Denne rapporten ble laget for 7 timer og 45 minutter siden, klokken 14:10 UTC
Varsel gyldig fra 18. klokken 15 UTC til 18. klokken 18 UTC
Vind 8 kt fra Sør-sørvest
Sikt 10 km eller mer
Brutte skyer i en høyde av 3000 ft
Midlertidig
fra 18. klokken 17 UTC til 18. klokken 18 UTC
Sikt: 4000 m
Brutte skyer i en høyde av 1000 ft
regn, dis

TAF: ESMK 181410Z 1815/1818 20008KT 9999 BKN030 TEMPO 1817/1818 4000 RA BR BKN010

Værobservasjoner og værvarsel for over 4000 flyplasser (METAR- og TAF-rapporter).

Tilgjengelige stasjoner er representert av de røde og gule prikkene på kartet.

Hold musepekeren over prikken for å se navnet på stasjonen.

Klikk så for å se værobservasjoner og -varsler.

For å forandre kartet kan du klikke på den grønne knappen med svart kryss for å zoome inn, på den grønne knappen med strek for å zoome ut, eller på de grønne pilene for å se tilstøtende kart.


METAR-TAF: